sensor_id;sensor_type;location;lat;lon;timestamp;P1;durP1;ratioP1;P2;durP2;ratioP2
17890;SDS011;9071;48.220;14.480;2022-08-01T00:02:00;10.18;;;9.10;;
17890;SDS011;9071;48.220;14.480;2022-08-01T00:07:02;10.02;;;9.02;;
17890;SDS011;9071;48.220;14.480;2022-08-01T00:12:05;10.15;;;8.98;;
17890;SDS011;9071;48.220;14.480;2022-08-01T00:17:08;9.57;;;8.63;;
17890;SDS011;9071;48.220;14.480;2022-08-01T00:22:10;10.27;;;8.45;;
17890;SDS011;9071;48.220;14.480;2022-08-01T00:27:13;9.68;;;8.68;;
17890;SDS011;9071;48.220;14.480;2022-08-01T00:32:16;10.27;;;8.98;;
17890;SDS011;9071;48.220;14.480;2022-08-01T00:37:18;11.05;;;9.75;;
17890;SDS011;9071;48.220;14.480;2022-08-01T00:42:20;10.82;;;9.75;;
17890;SDS011;9071;48.220;14.480;2022-08-01T00:47:24;10.80;;;9.77;;
17890;SDS011;9071;48.220;14.480;2022-08-01T00:52:26;13.20;;;9.98;;
17890;SDS011;9071;48.220;14.480;2022-08-01T00:57:28;9.90;;;8.90;;
17890;SDS011;9071;48.220;14.480;2022-08-01T01:02:32;11.43;;;9.60;;
17890;SDS011;9071;48.220;14.480;2022-08-01T01:07:37;11.07;;;9.93;;
17890;SDS011;9071;48.220;14.480;2022-08-01T01:12:47;11.15;;;9.88;;
17890;SDS011;9071;48.220;14.480;2022-08-01T01:17:56;10.63;;;9.52;;
17890;SDS011;9071;48.220;14.480;2022-08-01T01:23:10;9.30;;;8.40;;
17890;SDS011;9071;48.220;14.480;2022-08-01T01:28:25;10.40;;;9.25;;
17890;SDS011;9071;48.220;14.480;2022-08-01T01:33:35;8.70;;;7.90;;
17890;SDS011;9071;48.220;14.480;2022-08-01T01:38:39;8.73;;;7.82;;
17890;SDS011;9071;48.220;14.480;2022-08-01T01:43:44;8.13;;;7.32;;
17890;SDS011;9071;48.220;14.480;2022-08-01T01:48:48;9.00;;;7.38;;
17890;SDS011;9071;48.220;14.480;2022-08-01T01:53:54;15.70;;;9.18;;
17890;SDS011;9071;48.220;14.480;2022-08-01T01:58:57;10.77;;;8.82;;
17890;SDS011;9071;48.220;14.480;2022-08-01T02:04:03;12.60;;;10.27;;
17890;SDS011;9071;48.220;14.480;2022-08-01T02:09:06;15.27;;;10.93;;
17890;SDS011;9071;48.220;14.480;2022-08-01T02:14:10;13.05;;;11.48;;
17890;SDS011;9071;48.220;14.480;2022-08-01T02:19:15;11.77;;;10.60;;
17890;SDS011;9071;48.220;14.480;2022-08-01T02:24:24;12.38;;;10.68;;
17890;SDS011;9071;48.220;14.480;2022-08-01T02:29:35;10.88;;;9.75;;
17890;SDS011;9071;48.220;14.480;2022-08-01T02:34:44;12.10;;;10.63;;
17890;SDS011;9071;48.220;14.480;2022-08-01T02:39:50;14.63;;;10.55;;
17890;SDS011;9071;48.220;14.480;2022-08-01T02:44:55;11.65;;;10.52;;
17890;SDS011;9071;48.220;14.480;2022-08-01T02:50:00;10.95;;;9.95;;
17890;SDS011;9071;48.220;14.480;2022-08-01T02:55:03;11.02;;;9.82;;
17890;SDS011;9071;48.220;14.480;2022-08-01T03:00:07;11.95;;;10.63;;
17890;SDS011;9071;48.220;14.480;2022-08-01T03:05:12;10.70;;;9.73;;
17890;SDS011;9071;48.220;14.480;2022-08-01T03:10:15;11.05;;;9.85;;
17890;SDS011;9071;48.220;14.480;2022-08-01T03:15:18;10.43;;;9.43;;
17890;SDS011;9071;48.220;14.480;2022-08-01T03:20:24;10.07;;;9.15;;
17890;SDS011;9071;48.220;14.480;2022-08-01T03:25:28;10.25;;;9.25;;
17890;SDS011;9071;48.220;14.480;2022-08-01T03:30:33;10.40;;;9.27;;
17890;SDS011;9071;48.220;14.480;2022-08-01T03:35:42;9.60;;;8.70;;
17890;SDS011;9071;48.220;14.480;2022-08-01T03:40:49;10.32;;;9.18;;
17890;SDS011;9071;48.220;14.480;2022-08-01T03:45:54;9.38;;;8.48;;
17890;SDS011;9071;48.220;14.480;2022-08-01T03:51:02;10.68;;;9.15;;
17890;SDS011;9071;48.220;14.480;2022-08-01T03:56:05;10.00;;;8.70;;
17890;SDS011;9071;48.220;14.480;2022-08-01T04:01:09;11.95;;;8.90;;
17890;SDS011;9071;48.220;14.480;2022-08-01T04:06:14;9.80;;;8.90;;
17890;SDS011;9071;48.220;14.480;2022-08-01T04:11:17;9.68;;;8.73;;
17890;SDS011;9071;48.220;14.480;2022-08-01T04:16:19;9.68;;;8.77;;
17890;SDS011;9071;48.220;14.480;2022-08-01T04:21:25;8.85;;;7.63;;
17890;SDS011;9071;48.220;14.480;2022-08-01T04:26:28;10.63;;;8.82;;
17890;SDS011;9071;48.220;14.480;2022-08-01T04:31:33;13.48;;;8.95;;
17890;SDS011;9071;48.220;14.480;2022-08-01T04:36:38;9.88;;;8.88;;
17890;SDS011;9071;48.220;14.480;2022-08-01T04:41:42;11.23;;;9.85;;
17890;SDS011;9071;48.220;14.480;2022-08-01T04:46:46;10.10;;;9.10;;
17890;SDS011;9071;48.220;14.480;2022-08-01T04:51:52;12.38;;;8.82;;
17890;SDS011;9071;48.220;14.480;2022-08-01T04:56:57;10.43;;;9.38;;
17890;SDS011;9071;48.220;14.480;2022-08-01T05:02:00;11.60;;;9.13;;
17890;SDS011;9071;48.220;14.480;2022-08-01T05:07:04;11.45;;;9.25;;
17890;SDS011;9071;48.220;14.480;2022-08-01T05:12:07;9.82;;;8.38;;
17890;SDS011;9071;48.220;14.480;2022-08-01T05:17:11;10.82;;;8.60;;
17890;SDS011;9071;48.220;14.480;2022-08-01T05:22:14;9.20;;;8.30;;
17890;SDS011;9071;48.220;14.480;2022-08-01T05:27:16;8.10;;;7.40;;
17890;SDS011;9071;48.220;14.480;2022-08-01T05:32:19;8.00;;;7.20;;
17890;SDS011;9071;48.220;14.480;2022-08-01T05:37:22;9.82;;;8.82;;
17890;SDS011;9071;48.220;14.480;2022-08-01T05:42:24;10.23;;;8.35;;
17890;SDS011;9071;48.220;14.480;2022-08-01T05:47:26;10.18;;;8.10;;
17890;SDS011;9071;48.220;14.480;2022-08-01T05:52:30;9.00;;;8.10;;
17890;SDS011;9071;48.220;14.480;2022-08-01T05:57:32;9.13;;;7.57;;
17890;SDS011;9071;48.220;14.480;2022-08-01T06:02:34;8.57;;;7.57;;
17890;SDS011;9071;48.220;14.480;2022-08-01T06:07:42;13.25;;;8.00;;
17890;SDS011;9071;48.220;14.480;2022-08-01T06:12:44;7.95;;;7.07;;
17890;SDS011;9071;48.220;14.480;2022-08-01T06:17:46;8.50;;;7.13;;
17890;SDS011;9071;48.220;14.480;2022-08-01T06:22:50;11.75;;;7.45;;
17890;SDS011;9071;48.220;14.480;2022-08-01T06:27:52;10.40;;;7.68;;
17890;SDS011;9071;48.220;14.480;2022-08-01T06:32:54;11.70;;;7.43;;
17890;SDS011;9071;48.220;14.480;2022-08-01T06:38:00;15.90;;;7.38;;
17890;SDS011;9071;48.220;14.480;2022-08-01T06:43:03;7.90;;;7.10;;
17890;SDS011;9071;48.220;14.480;2022-08-01T06:48:05;11.27;;;6.90;;
17890;SDS011;9071;48.220;14.480;2022-08-01T06:53:09;9.77;;;6.57;;
17890;SDS011;9071;48.220;14.480;2022-08-01T06:58:11;12.15;;;6.78;;
17890;SDS011;9071;48.220;14.480;2022-08-01T07:03:13;11.82;;;6.82;;
17890;SDS011;9071;48.220;14.480;2022-08-01T07:08:16;8.32;;;5.85;;
17890;SDS011;9071;48.220;14.480;2022-08-01T07:13:18;6.47;;;4.95;;
17890;SDS011;9071;48.220;14.480;2022-08-01T07:18:25;6.68;;;4.85;;
17890;SDS011;9071;48.220;14.480;2022-08-01T07:23:28;7.50;;;4.38;;
17890;SDS011;9071;48.220;14.480;2022-08-01T07:28:30;5.35;;;4.38;;
17890;SDS011;9071;48.220;14.480;2022-08-01T07:33:32;6.55;;;3.83;;
17890;SDS011;9071;48.220;14.480;2022-08-01T07:38:36;6.43;;;4.00;;
17890;SDS011;9071;48.220;14.480;2022-08-01T07:43:39;6.10;;;3.55;;
17890;SDS011;9071;48.220;14.480;2022-08-01T07:48:41;4.97;;;4.03;;
17890;SDS011;9071;48.220;14.480;2022-08-01T07:53:45;6.70;;;3.67;;
17890;SDS011;9071;48.220;14.480;2022-08-01T07:58:47;4.47;;;3.50;;
17890;SDS011;9071;48.220;14.480;2022-08-01T08:03:49;5.80;;;3.50;;
17890;SDS011;9071;48.220;14.480;2022-08-01T08:08:52;5.68;;;3.30;;
17890;SDS011;9071;48.220;14.480;2022-08-01T08:13:54;5.95;;;3.10;;
17890;SDS011;9071;48.220;14.480;2022-08-01T08:18:56;4.20;;;3.70;;
17890;SDS011;9071;48.220;14.480;2022-08-01T08:24:00;5.20;;;3.35;;
17890;SDS011;9071;48.220;14.480;2022-08-01T08:29:20;10.43;;;3.70;;
17890;SDS011;9071;48.220;14.480;2022-08-01T08:34:22;6.65;;;3.53;;
17890;SDS011;9071;48.220;14.480;2022-08-01T08:39:26;7.55;;;3.10;;
17890;SDS011;9071;48.220;14.480;2022-08-01T08:44:30;8.07;;;2.85;;
17890;SDS011;9071;48.220;14.480;2022-08-01T08:49:32;6.15;;;3.50;;
17890;SDS011;9071;48.220;14.480;2022-08-01T08:54:37;5.88;;;2.88;;
17890;SDS011;9071;48.220;14.480;2022-08-01T08:59:39;4.35;;;2.95;;
17890;SDS011;9071;48.220;14.480;2022-08-01T09:04:43;3.45;;;2.83;;
17890;SDS011;9071;48.220;14.480;2022-08-01T09:09:49;8.73;;;3.38;;
17890;SDS011;9071;48.220;14.480;2022-08-01T09:14:51;4.57;;;3.00;;
17890;SDS011;9071;48.220;14.480;2022-08-01T09:19:55;5.50;;;3.10;;
17890;SDS011;9071;48.220;14.480;2022-08-01T09:24:59;5.97;;;3.05;;
17890;SDS011;9071;48.220;14.480;2022-08-01T09:30:09;8.45;;;3.28;;
17890;SDS011;9071;48.220;14.480;2022-08-01T09:35:22;5.07;;;3.00;;
17890;SDS011;9071;48.220;14.480;2022-08-01T09:40:28;4.78;;;3.20;;
17890;SDS011;9071;48.220;14.480;2022-08-01T09:45:49;4.07;;;2.90;;
17890;SDS011;9071;48.220;14.480;2022-08-01T09:50:52;8.50;;;2.85;;
17890;SDS011;9071;48.220;14.480;2022-08-01T09:56:01;6.28;;;3.20;;
17890;SDS011;9071;48.220;14.480;2022-08-01T10:01:10;3.35;;;2.67;;
17890;SDS011;9071;48.220;14.480;2022-08-01T10:06:19;9.10;;;3.22;;
17890;SDS011;9071;48.220;14.480;2022-08-01T10:11:23;3.67;;;3.00;;
17890;SDS011;9071;48.220;14.480;2022-08-01T10:16:25;8.95;;;3.28;;
17890;SDS011;9071;48.220;14.480;2022-08-01T10:21:29;5.03;;;2.78;;
17890;SDS011;9071;48.220;14.480;2022-08-01T10:26:35;5.13;;;3.17;;
17890;SDS011;9071;48.220;14.480;2022-08-01T10:31:40;3.00;;;2.78;;
17890;SDS011;9071;48.220;14.480;2022-08-01T10:36:42;4.13;;;2.97;;
17890;SDS011;9071;48.220;14.480;2022-08-01T10:41:47;4.35;;;2.90;;
17890;SDS011;9071;48.220;14.480;2022-08-01T10:46:50;5.53;;;2.95;;
17890;SDS011;9071;48.220;14.480;2022-08-01T10:51:56;7.55;;;2.80;;
17890;SDS011;9071;48.220;14.480;2022-08-01T10:57:00;6.10;;;2.72;;
17890;SDS011;9071;48.220;14.480;2022-08-01T11:02:04;39.47;;;6.95;;
17890;SDS011;9071;48.220;14.480;2022-08-01T11:07:08;65.57;;;8.82;;
17890;SDS011;9071;48.220;14.480;2022-08-01T11:12:18;6.93;;;2.92;;
17890;SDS011;9071;48.220;14.480;2022-08-01T11:17:30;5.95;;;2.60;;
17890;SDS011;9071;48.220;14.480;2022-08-01T11:28:20;5.05;;;2.28;;
17890;SDS011;9071;48.220;14.480;2022-08-01T11:44:19;2.30;;;2.10;;
17890;SDS011;9071;48.220;14.480;2022-08-01T11:49:42;2.72;;;2.30;;
17890;SDS011;9071;48.220;14.480;2022-08-01T11:54:51;6.20;;;3.28;;
17890;SDS011;9071;48.220;14.480;2022-08-01T11:59:56;3.22;;;2.45;;
17890;SDS011;9071;48.220;14.480;2022-08-01T12:05:00;4.63;;;2.70;;
17890;SDS011;9071;48.220;14.480;2022-08-01T12:10:04;5.50;;;2.63;;
17890;SDS011;9071;48.220;14.480;2022-08-01T12:15:09;7.40;;;3.05;;
17890;SDS011;9071;48.220;14.480;2022-08-01T12:20:13;6.70;;;3.03;;
17890;SDS011;9071;48.220;14.480;2022-08-01T12:25:17;6.55;;;3.08;;
17890;SDS011;9071;48.220;14.480;2022-08-01T12:30:21;4.05;;;3.10;;
17890;SDS011;9071;48.220;14.480;2022-08-01T12:35:25;4.95;;;2.40;;
17890;SDS011;9071;48.220;14.480;2022-08-01T12:40:29;3.40;;;2.08;;
17890;SDS011;9071;48.220;14.480;2022-08-01T12:45:37;3.53;;;2.08;;
17890;SDS011;9071;48.220;14.480;2022-08-01T12:50:44;6.95;;;2.60;;
17890;SDS011;9071;48.220;14.480;2022-08-01T12:55:47;4.30;;;2.50;;
17890;SDS011;9071;48.220;14.480;2022-08-01T13:01:02;5.40;;;2.58;;
17890;SDS011;9071;48.220;14.480;2022-08-01T13:06:10;7.45;;;2.95;;
17890;SDS011;9071;48.220;14.480;2022-08-01T13:11:13;4.28;;;2.53;;
17890;SDS011;9071;48.220;14.480;2022-08-01T13:16:18;4.07;;;2.30;;
17890;SDS011;9071;48.220;14.480;2022-08-01T13:21:23;3.10;;;2.00;;
17890;SDS011;9071;48.220;14.480;2022-08-01T13:26:42;3.60;;;2.15;;
17890;SDS011;9071;48.220;14.480;2022-08-01T13:31:46;5.72;;;2.60;;
17890;SDS011;9071;48.220;14.480;2022-08-01T13:36:49;8.65;;;2.55;;
17890;SDS011;9071;48.220;14.480;2022-08-01T13:41:51;3.65;;;1.77;;
17890;SDS011;9071;48.220;14.480;2022-08-01T13:46:55;5.80;;;2.08;;
17890;SDS011;9071;48.220;14.480;2022-08-01T13:51:57;1.65;;;1.30;;
17890;SDS011;9071;48.220;14.480;2022-08-01T13:57:00;3.40;;;1.17;;
17890;SDS011;9071;48.220;14.480;2022-08-01T14:02:03;1.48;;;1.02;;
17890;SDS011;9071;48.220;14.480;2022-08-01T14:07:05;0.80;;;0.80;;
17890;SDS011;9071;48.220;14.480;2022-08-01T14:12:07;1.35;;;1.00;;
17890;SDS011;9071;48.220;14.480;2022-08-01T14:17:11;1.50;;;1.13;;
17890;SDS011;9071;48.220;14.480;2022-08-01T14:22:13;2.78;;;1.08;;
17890;SDS011;9071;48.220;14.480;2022-08-01T14:27:15;1.83;;;0.98;;
17890;SDS011;9071;48.220;14.480;2022-08-01T14:32:19;1.10;;;0.93;;
17890;SDS011;9071;48.220;14.480;2022-08-01T14:37:21;2.40;;;1.15;;
17890;SDS011;9071;48.220;14.480;2022-08-01T14:42:23;3.22;;;1.40;;
17890;SDS011;9071;48.220;14.480;2022-08-01T14:47:27;1.50;;;1.17;;
17890;SDS011;9071;48.220;14.480;2022-08-01T14:52:29;1.20;;;1.10;;
17890;SDS011;9071;48.220;14.480;2022-08-01T14:57:31;2.03;;;1.27;;
17890;SDS011;9071;48.220;14.480;2022-08-01T15:02:34;3.33;;;1.30;;
17890;SDS011;9071;48.220;14.480;2022-08-01T15:07:37;1.85;;;1.50;;
17890;SDS011;9071;48.220;14.480;2022-08-01T15:12:39;8.02;;;2.08;;
17890;SDS011;9071;48.220;14.480;2022-08-01T15:17:43;3.20;;;1.85;;
17890;SDS011;9071;48.220;14.480;2022-08-01T15:22:45;3.90;;;2.20;;
17890;SDS011;9071;48.220;14.480;2022-08-01T15:27:47;4.50;;;2.25;;
17890;SDS011;9071;48.220;14.480;2022-08-01T15:32:51;3.47;;;1.83;;
17890;SDS011;9071;48.220;14.480;2022-08-01T15:37:56;4.53;;;2.53;;
17890;SDS011;9071;48.220;14.480;2022-08-01T15:42:58;3.22;;;1.80;;
17890;SDS011;9071;48.220;14.480;2022-08-01T15:48:01;3.85;;;2.42;;
17890;SDS011;9071;48.220;14.480;2022-08-01T15:53:04;6.57;;;2.13;;
17890;SDS011;9071;48.220;14.480;2022-08-01T15:58:06;6.65;;;2.33;;
17890;SDS011;9071;48.220;14.480;2022-08-01T16:03:10;5.45;;;2.65;;
17890;SDS011;9071;48.220;14.480;2022-08-01T16:08:12;4.28;;;2.00;;
17890;SDS011;9071;48.220;14.480;2022-08-01T16:13:15;2.42;;;1.70;;
17890;SDS011;9071;48.220;14.480;2022-08-01T16:18:19;6.28;;;1.70;;
17890;SDS011;9071;48.220;14.480;2022-08-01T16:23:21;2.55;;;1.83;;
17890;SDS011;9071;48.220;14.480;2022-08-01T16:28:23;5.05;;;2.03;;
17890;SDS011;9071;48.220;14.480;2022-08-01T16:33:27;1.90;;;1.80;;
17890;SDS011;9071;48.220;14.480;2022-08-01T16:38:29;2.00;;;1.80;;
17890;SDS011;9071;48.220;14.480;2022-08-01T16:43:31;2.88;;;2.00;;
17890;SDS011;9071;48.220;14.480;2022-08-01T16:48:35;2.72;;;2.03;;
17890;SDS011;9071;48.220;14.480;2022-08-01T16:53:37;2.75;;;2.00;;
17890;SDS011;9071;48.220;14.480;2022-08-01T16:58:39;2.55;;;1.90;;
17890;SDS011;9071;48.220;14.480;2022-08-01T17:03:43;3.58;;;1.98;;
17890;SDS011;9071;48.220;14.480;2022-08-01T17:08:45;2.80;;;1.73;;
17890;SDS011;9071;48.220;14.480;2022-08-01T17:13:47;3.78;;;1.52;;
17890;SDS011;9071;48.220;14.480;2022-08-01T17:18:50;1.80;;;1.60;;
17890;SDS011;9071;48.220;14.480;2022-08-01T17:23:52;3.17;;;1.45;;
17890;SDS011;9071;48.220;14.480;2022-08-01T17:28:54;2.00;;;1.42;;
17890;SDS011;9071;48.220;14.480;2022-08-01T17:33:58;2.22;;;1.55;;
17890;SDS011;9071;48.220;14.480;2022-08-01T17:39:00;1.60;;;1.40;;
17890;SDS011;9071;48.220;14.480;2022-08-01T17:44:04;3.60;;;1.88;;
17890;SDS011;9071;48.220;14.480;2022-08-01T17:49:07;3.38;;;1.60;;
17890;SDS011;9071;48.220;14.480;2022-08-01T17:54:09;2.85;;;1.92;;
17890;SDS011;9071;48.220;14.480;2022-08-01T17:59:11;2.75;;;2.10;;
17890;SDS011;9071;48.220;14.480;2022-08-01T18:04:15;1.80;;;1.50;;
17890;SDS011;9071;48.220;14.480;2022-08-01T18:09:17;1.98;;;1.75;;
17890;SDS011;9071;48.220;14.480;2022-08-01T18:14:19;1.55;;;1.40;;
17890;SDS011;9071;48.220;14.480;2022-08-01T18:19:23;2.50;;;1.48;;
17890;SDS011;9071;48.220;14.480;2022-08-01T18:24:25;1.92;;;1.50;;
17890;SDS011;9071;48.220;14.480;2022-08-01T18:29:27;2.17;;;1.50;;
17890;SDS011;9071;48.220;14.480;2022-08-01T18:34:31;2.20;;;1.67;;
17890;SDS011;9071;48.220;14.480;2022-08-01T18:39:33;2.33;;;1.58;;
17890;SDS011;9071;48.220;14.480;2022-08-01T18:44:35;4.28;;;1.75;;
17890;SDS011;9071;48.220;14.480;2022-08-01T18:49:38;1.70;;;1.60;;
17890;SDS011;9071;48.220;14.480;2022-08-01T18:54:40;1.95;;;1.67;;
17890;SDS011;9071;48.220;14.480;2022-08-01T18:59:42;1.92;;;1.60;;
17890;SDS011;9071;48.220;14.480;2022-08-01T19:04:46;1.67;;;1.50;;
17890;SDS011;9071;48.220;14.480;2022-08-01T19:09:48;2.10;;;1.80;;
17890;SDS011;9071;48.220;14.480;2022-08-01T19:14:50;1.85;;;1.63;;
17890;SDS011;9071;48.220;14.480;2022-08-01T19:19:54;2.95;;;1.92;;
17890;SDS011;9071;48.220;14.480;2022-08-01T19:24:56;2.90;;;1.67;;
17890;SDS011;9071;48.220;14.480;2022-08-01T19:30:00;1.80;;;1.70;;
17890;SDS011;9071;48.220;14.480;2022-08-01T19:35:04;2.25;;;1.90;;
17890;SDS011;9071;48.220;14.480;2022-08-01T19:40:10;4.50;;;2.10;;
17890;SDS011;9071;48.220;14.480;2022-08-01T19:45:13;2.40;;;1.70;;
17890;SDS011;9071;48.220;14.480;2022-08-01T19:50:17;2.95;;;1.70;;
17890;SDS011;9071;48.220;14.480;2022-08-01T19:55:19;2.67;;;2.03;;
17890;SDS011;9071;48.220;14.480;2022-08-01T20:00:23;3.28;;;2.40;;
17890;SDS011;9071;48.220;14.480;2022-08-01T20:05:27;2.78;;;1.90;;
17890;SDS011;9071;48.220;14.480;2022-08-01T20:10:29;3.70;;;2.10;;
17890;SDS011;9071;48.220;14.480;2022-08-01T20:15:32;2.85;;;2.00;;
17890;SDS011;9071;48.220;14.480;2022-08-01T20:20:36;2.85;;;2.25;;
17890;SDS011;9071;48.220;14.480;2022-08-01T20:25:38;5.93;;;2.75;;
17890;SDS011;9071;48.220;14.480;2022-08-01T20:30:42;2.13;;;1.90;;
17890;SDS011;9071;48.220;14.480;2022-08-01T20:35:46;4.32;;;2.20;;
17890;SDS011;9071;48.220;14.480;2022-08-01T20:40:50;2.70;;;2.10;;
17890;SDS011;9071;48.220;14.480;2022-08-01T20:45:54;3.03;;;2.13;;
17890;SDS011;9071;48.220;14.480;2022-08-01T20:50:58;4.53;;;2.10;;
17890;SDS011;9071;48.220;14.480;2022-08-01T20:56:21;4.75;;;2.25;;
17890;SDS011;9071;48.220;14.480;2022-08-01T21:01:32;4.95;;;4.22;;
17890;SDS011;9071;48.220;14.480;2022-08-01T21:06:42;3.75;;;3.10;;
17890;SDS011;9071;48.220;14.480;2022-08-01T21:11:51;10.38;;;2.90;;
17890;SDS011;9071;48.220;14.480;2022-08-01T21:17:02;5.18;;;2.20;;
17890;SDS011;9071;48.220;14.480;2022-08-01T21:22:16;2.58;;;2.30;;
17890;SDS011;9071;48.220;14.480;2022-08-01T21:27:21;4.65;;;2.40;;
17890;SDS011;9071;48.220;14.480;2022-08-01T21:32:24;3.67;;;2.30;;
17890;SDS011;9071;48.220;14.480;2022-08-01T21:37:31;3.63;;;2.33;;
17890;SDS011;9071;48.220;14.480;2022-08-01T21:42:37;5.53;;;2.55;;
17890;SDS011;9071;48.220;14.480;2022-08-01T21:47:39;4.05;;;2.70;;
17890;SDS011;9071;48.220;14.480;2022-08-01T21:52:45;5.45;;;2.55;;
17890;SDS011;9071;48.220;14.480;2022-08-01T21:58:00;2.78;;;2.40;;
17890;SDS011;9071;48.220;14.480;2022-08-01T22:03:13;4.90;;;3.00;;
17890;SDS011;9071;48.220;14.480;2022-08-01T22:08:26;9.75;;;3.33;;
17890;SDS011;9071;48.220;14.480;2022-08-01T22:13:29;4.07;;;3.10;;
17890;SDS011;9071;48.220;14.480;2022-08-01T22:18:33;4.50;;;3.15;;
17890;SDS011;9071;48.220;14.480;2022-08-01T22:23:38;5.95;;;3.10;;
17890;SDS011;9071;48.220;14.480;2022-08-01T22:28:40;5.13;;;3.50;;
17890;SDS011;9071;48.220;14.480;2022-08-01T22:33:42;6.40;;;3.25;;
17890;SDS011;9071;48.220;14.480;2022-08-01T22:38:48;5.38;;;3.60;;
17890;SDS011;9071;48.220;14.480;2022-08-01T22:43:53;4.82;;;3.00;;
17890;SDS011;9071;48.220;14.480;2022-08-01T22:48:59;6.78;;;3.30;;
17890;SDS011;9071;48.220;14.480;2022-08-01T22:54:10;4.93;;;2.95;;
17890;SDS011;9071;48.220;14.480;2022-08-01T22:59:14;6.07;;;3.22;;
17890;SDS011;9071;48.220;14.480;2022-08-01T23:04:21;4.20;;;3.40;;
17890;SDS011;9071;48.220;14.480;2022-08-01T23:09:28;4.68;;;3.03;;
17890;SDS011;9071;48.220;14.480;2022-08-01T23:14:32;5.45;;;2.95;;
17890;SDS011;9071;48.220;14.480;2022-08-01T23:19:36;6.18;;;2.72;;
17890;SDS011;9071;48.220;14.480;2022-08-01T23:24:41;4.30;;;2.53;;
17890;SDS011;9071;48.220;14.480;2022-08-01T23:29:44;3.28;;;2.67;;
17890;SDS011;9071;48.220;14.480;2022-08-01T23:34:48;2.60;;;2.33;;
17890;SDS011;9071;48.220;14.480;2022-08-01T23:39:52;3.30;;;2.78;;
17890;SDS011;9071;48.220;14.480;2022-08-01T23:44:54;3.92;;;3.30;;
17890;SDS011;9071;48.220;14.480;2022-08-01T23:49:56;5.28;;;3.30;;
17890;SDS011;9071;48.220;14.480;2022-08-01T23:55:00;5.63;;;3.03;;
